Time;durP1;ratioP1;P1;durP2;ratioP2;P2;SDS_P1;SDS_P2;PMS_P1;PMS_P2;Temp;Humidity;BMP_temperature;BMP_pressure;BME280_temperature;BME280_humidity;BME280_pressure;Samples;Min_cycle;Max_cycle;Signal;HPM_P1;HPM_P2
2023/10/03 00:02:27;;;;;;;;;;;;;;;15.41;83.54;100837.58;107747;276;120695;-56
2023/10/03 00:05:07;;;;;;;;;;;;;;;15.40;83.58;100836.11;107582;276;105973;-56
2023/10/03 00:07:47;;;;;;;;;;;;;;;15.41;83.70;100833.14;107847;276;112321;-60
2023/10/03 00:10:28;;;;;;;;;;;;;;;15.39;83.61;100834.15;107807;276;96821;-59
2023/10/03 00:13:11;;;;;;;;;;;;;;;15.41;83.98;100829.41;107821;276;96554;-59
2023/10/03 00:15:57;;;;;;;;;;;;;;;15.45;83.90;100829.44;107736;276;120907;-59
2023/10/03 00:18:31;;;;;;;;;;;;;;;15.42;83.96;100818.31;107761;276;104610;-60
2023/10/03 00:21:08;;;;;;;;;;;;;;;15.45;83.89;100820.71;107724;275;114318;-56
2023/10/03 00:23:43;;;;;;;;;;;;;;;15.47;83.92;100817.91;107600;276;96873;-56
2023/10/03 00:26:18;;;;;;;;;;;;;;;15.45;84.06;100822.29;107680;276;97182;-59
2023/10/03 00:28:57;;;;;;;;;;;;;;;15.43;84.11;100818.03;107621;275;121675;-59
2023/10/03 00:31:34;;;;;;;;;;;;;;;15.46;84.22;100818.58;107646;276;105745;-56
2023/10/03 00:34:12;;;;;;;;;;;;;;;15.44;84.07;100821.92;107639;275;114268;-55
2023/10/03 00:36:49;;;;;;;;;;;;;;;15.40;84.02;100817.52;107633;275;96968;-58
2023/10/03 00:39:23;;;;;;;;;;;;;;;15.39;84.05;100820.40;107709;268;96843;-59
2023/10/03 00:42:05;;;;;;;;;;;;;;;15.38;84.00;100821.47;107628;275;121743;-59
2023/10/03 00:44:42;;;;;;;;;;;;;;;15.35;84.06;100818.57;107702;276;102940;-58
2023/10/03 00:47:22;;;;;;;;;;;;;;;15.30;83.90;100818.19;107705;276;113890;-54
2023/10/03 00:49:53;;;;;;;;;;;;;;;15.32;84.25;100815.98;107698;276;95064;-55
2023/10/03 00:52:28;;;;;;;;;;;;;;;15.30;84.15;100819.81;107846;275;97027;-60
2023/10/03 00:55:06;;;;;;;;;;;;;;;15.27;84.28;100815.48;107814;276;122166;-60
2023/10/03 00:58:01;;;;;;;;;;;;;;;15.25;84.26;100812.95;107744;276;105675;-56
2023/10/03 01:00:37;;;;;;;;;;;;;;;15.23;84.18;100810.16;107544;276;114645;-59
2023/10/03 01:03:27;;;;;;;;;;;;;;;15.19;84.43;100805.23;107649;276;96162;-59
2023/10/03 01:06:12;;;;;;;;;;;;;;;15.23;84.50;100800.81;107751;276;96916;-61
2023/10/03 01:08:49;;;;;;;;;;;;;;;15.24;84.44;100797.47;107835;276;121165;-60
2023/10/03 01:11:24;;;;;;;;;;;;;;;15.22;84.58;100796.30;107595;276;104149;-59
2023/10/03 01:14:06;;;;;;;;;;;;;;;15.20;84.49;100793.78;107574;276;114717;-58
2023/10/03 01:16:39;;;;;;;;;;;;;;;15.21;84.69;100791.27;107627;275;97110;-55
2023/10/03 01:19:20;;;;;;;;;;;;;;;15.20;84.67;100786.16;107631;276;95166;-55
2023/10/03 01:21:56;;;;;;;;;;;;;;;15.17;84.68;100785.27;107627;276;121870;-55
2023/10/03 01:24:34;;;;;;;;;;;;;;;15.16;84.79;100779.84;107667;275;105515;-55
2023/10/03 01:27:07;;;;;;;;;;;;;;;15.13;84.67;100779.27;107659;275;115475;-58
2023/10/03 01:29:45;;;;;;;;;;;;;;;15.08;85.04;100781.69;107671;275;95281;-58
2023/10/03 01:32:22;;;;;;;;;;;;;;;15.08;85.14;100780.43;107673;275;98122;-56
2023/10/03 01:35:06;;;;;;;;;;;;;;;15.06;85.18;100785.04;107670;276;121341;-56
2023/10/03 01:37:40;;;;;;;;;;;;;;;15.07;85.34;100785.95;107684;276;105655;-55
2023/10/03 01:40:16;;;;;;;;;;;;;;;15.10;85.16;100787.74;107642;276;114327;-55
2023/10/03 01:42:53;;;;;;;;;;;;;;;15.12;85.45;100786.25;107661;275;94993;-56
2023/10/03 01:45:32;;;;;;;;;;;;;;;15.12;85.44;100783.94;107723;276;98070;-57
2023/10/03 01:48:10;;;;;;;;;;;;;;;15.11;85.30;100785.66;107650;276;122971;-57
2023/10/03 01:50:46;;;;;;;;;;;;;;;15.06;85.30;100784.11;107621;276;104883;-55
2023/10/03 01:53:19;;;;;;;;;;;;;;;15.08;85.33;100786.74;107644;275;114936;-56
2023/10/03 01:55:58;;;;;;;;;;;;;;;15.07;85.35;100788.80;107670;276;96721;-58
2023/10/03 01:58:34;;;;;;;;;;;;;;;15.05;85.74;100786.54;107445;276;98165;-58
2023/10/03 02:01:08;;;;;;;;;;;;;;;15.06;85.65;100787.64;107748;276;119975;-59
2023/10/03 02:03:42;;;;;;;;;;;;;;;15.06;85.61;100787.25;107919;276;103810;-59
2023/10/03 02:06:23;;;;;;;;;;;;;;;15.06;85.70;100784.02;107859;275;114287;-59
2023/10/03 02:08:56;;;;;;;;;;;;;;;15.02;85.71;100781.81;107881;276;98181;-59
2023/10/03 02:11:35;;;;;;;;;;;;;;;15.03;85.77;100781.64;107739;276;97284;-58
2023/10/03 02:14:22;;;;;;;;;;;;;;;15.03;85.75;100778.95;107446;276;122456;-59
2023/10/03 02:16:55;;;;;;;;;;;;;;;15.04;85.78;100777.17;107627;276;105766;-54
2023/10/03 02:19:32;;;;;;;;;;;;;;;15.04;85.72;100768.08;107644;276;114292;-55
2023/10/03 02:22:13;;;;;;;;;;;;;;;15.05;85.92;100767.58;107786;276;96960;-59
2023/10/03 02:24:47;;;;;;;;;;;;;;;15.06;85.93;100762.89;107872;276;98225;-59
2023/10/03 02:27:25;;;;;;;;;;;;;;;15.05;85.77;100758.15;107767;275;121198;-57
2023/10/03 02:30:12;;;;;;;;;;;;;;;15.01;85.80;100755.06;107694;276;106413;-59
2023/10/03 02:32:53;;;;;;;;;;;;;;;15.01;85.96;100754.05;107690;276;114150;-57
2023/10/03 02:35:26;;;;;;;;;;;;;;;15.00;85.89;100750.20;107766;276;96614;-56
2023/10/03 02:38:05;;;;;;;;;;;;;;;14.96;86.07;100742.88;107752;276;96748;-55
2023/10/03 02:40:40;;;;;;;;;;;;;;;14.99;86.20;100740.83;107709;275;120762;-55
2023/10/03 02:43:15;;;;;;;;;;;;;;;14.99;85.94;100736.57;107667;276;105075;-56
2023/10/03 02:45:55;;;;;;;;;;;;;;;14.98;86.10;100735.10;107654;275;114877;-58
2023/10/03 02:48:32;;;;;;;;;;;;;;;14.95;85.99;100733.80;107648;276;96644;-58
2023/10/03 02:51:07;;;;;;;;;;;;;;;14.94;86.03;100728.52;107677;276;97925;-55
2023/10/03 02:53:41;;;;;;;;;;;;;;;14.93;86.24;100726.64;107619;275;121659;-55
2023/10/03 02:56:16;;;;;;;;;;;;;;;14.94;86.26;100722.46;107522;276;105345;-59
2023/10/03 02:58:52;;;;;;;;;;;;;;;14.98;86.35;100720.95;107803;275;114088;-59
2023/10/03 03:01:24;;;;;;;;;;;;;;;14.99;86.36;100719.65;107771;275;96093;-57
2023/10/03 03:03:57;;;;;;;;;;;;;;;14.97;86.15;100716.17;107651;276;97549;-59
2023/10/03 03:06:36;;;;;;;;;;;;;;;14.94;86.29;100708.32;107734;275;122111;-59
2023/10/03 03:09:23;;;;;;;;;;;;;;;14.94;86.26;100704.76;107813;275;105704;-59
2023/10/03 03:12:00;;;;;;;;;;;;;;;14.93;86.27;100700.39;107593;276;114129;-58
2023/10/03 03:14:35;;;;;;;;;;;;;;;14.91;86.24;100697.18;107712;276;96675;-58
2023/10/03 03:17:13;;;;;;;;;;;;;;;14.90;86.24;100692.02;107650;276;97346;-56
2023/10/03 03:19:55;;;;;;;;;;;;;;;14.91;86.25;100690.20;107673;276;120853;-55
2023/10/03 03:22:29;;;;;;;;;;;;;;;14.88;86.36;100688.39;107675;276;105810;-55
2023/10/03 03:25:05;;;;;;;;;;;;;;;14.89;86.46;100684.77;107641;275;114860;-56
2023/10/03 03:27:43;;;;;;;;;;;;;;;14.89;86.38;100682.99;107659;276;95659;-55
2023/10/03 03:30:34;;;;;;;;;;;;;;;14.87;86.49;100682.95;107645;276;96235;-55
2023/10/03 03:33:09;;;;;;;;;;;;;;;14.85;86.46;100677.23;107633;276;120938;-59
2023/10/03 03:35:47;;;;;;;;;;;;;;;14.83;86.44;100673.23;107773;276;103595;-57
2023/10/03 03:38:20;;;;;;;;;;;;;;;14.78;86.57;100665.92;107613;275;113038;-57
2023/10/03 03:40:59;;;;;;;;;;;;;;;14.78;86.68;100663.91;107625;275;96370;-58
2023/10/03 03:43:33;;;;;;;;;;;;;;;14.75;86.71;100660.02;107681;276;97066;-59
2023/10/03 03:46:08;;;;;;;;;;;;;;;14.70;86.94;100660.15;107643;275;122534;-56
2023/10/03 03:48:44;;;;;;;;;;;;;;;14.68;86.85;100659.48;107660;276;105492;-56
2023/10/03 03:51:22;;;;;;;;;;;;;;;14.67;86.77;100652.92;107664;276;113387;-54
2023/10/03 03:54:04;;;;;;;;;;;;;;;14.66;86.84;100651.61;107683;276;95683;-54
2023/10/03 03:56:42;;;;;;;;;;;;;;;14.66;86.92;100648.45;107671;276;97920;-54
2023/10/03 03:59:21;;;;;;;;;;;;;;;14.60;87.23;100641.00;107139;276;490157;-57
2023/10/03 04:02:00;;;;;;;;;;;;;;;14.60;87.16;100645.10;107698;276;105866;-59
2023/10/03 04:04:39;;;;;;;;;;;;;;;14.62;87.24;100647.05;107651;275;113844;-54
2023/10/03 04:07:12;;;;;;;;;;;;;;;14.60;87.16;100645.27;107649;276;95231;-54
2023/10/03 04:09:46;;;;;;;;;;;;;;;14.56;87.13;100639.50;107689;275;97351;-56
2023/10/03 04:12:20;;;;;;;;;;;;;;;14.52;87.42;100641.58;107842;275;122049;-59
2023/10/03 04:14:55;;;;;;;;;;;;;;;14.51;87.19;100639.49;107775;276;106260;-59
2023/10/03 04:17:28;;;;;;;;;;;;;;;14.52;87.64;100641.63;107796;276;113945;-60
2023/10/03 04:20:00;;;;;;;;;;;;;;;14.51;87.60;100638.31;107694;276;95673;-54
2023/10/03 04:22:41;;;;;;;;;;;;;;;14.47;87.78;100640.04;107746;276;97383;-59
2023/10/03 04:25:20;;;;;;;;;;;;;;;14.45;87.64;100641.29;107783;276;121098;-59
2023/10/03 04:27:55;;;;;;;;;;;;;;;14.43;87.56;100638.40;107634;276;103759;-55
2023/10/03 04:30:26;;;;;;;;;;;;;;;14.38;87.56;100633.64;107648;272;114270;-55
2023/10/03 04:33:03;;;;;;;;;;;;;;;14.33;87.67;100627.45;107688;276;96760;-55
2023/10/03 04:35:43;;;;;;;;;;;;;;;14.34;87.90;100627.08;107702;276;98093;-57
2023/10/03 04:38:20;;;;;;;;;;;;;;;14.37;87.72;100629.40;107676;275;121673;-57
2023/10/03 04:41:00;;;;;;;;;;;;;;;14.35;87.95;100625.56;107665;276;104459;-55
2023/10/03 04:43:32;;;;;;;;;;;;;;;14.33;87.92;100621.25;107643;276;114206;-56
2023/10/03 04:46:08;;;;;;;;;;;;;;;14.28;88.04;100613.57;107627;275;95989;-58
2023/10/03 04:48:44;;;;;;;;;;;;;;;14.28;88.18;100612.19;107667;275;96929;-57
2023/10/03 04:51:21;;;;;;;;;;;;;;;14.27;88.14;100610.27;107673;276;121607;-56
2023/10/03 04:53:59;;;;;;;;;;;;;;;14.24;88.21;100610.92;107678;276;105804;-55
2023/10/03 04:56:32;;;;;;;;;;;;;;;14.24;88.34;100609.42;107750;275;114717;-59
2023/10/03 04:59:05;;;;;;;;;;;;;;;14.27;88.37;100609.77;107862;276;94208;-59
2023/10/03 05:01:40;;;;;;;;;;;;;;;14.25;88.38;100605.79;107757;276;97731;-53
2023/10/03 05:04:14;;;;;;;;;;;;;;;14.28;88.36;100599.68;107526;276;122190;-54
2023/10/03 05:06:49;;;;;;;;;;;;;;;14.29;88.25;100591.35;107731;275;106735;-58
2023/10/03 05:09:22;;;;;;;;;;;;;;;14.31;88.34;100590.00;107660;276;114964;-57
2023/10/03 05:11:54;;;;;;;;;;;;;;;14.33;88.42;100584.71;107679;275;96803;-54
2023/10/03 05:14:28;;;;;;;;;;;;;;;14.38;88.45;100579.08;107682;276;97401;-55
2023/10/03 05:17:01;;;;;;;;;;;;;;;14.45;88.31;100574.04;107803;276;120912;-59
2023/10/03 05:19:44;;;;;;;;;;;;;;;14.53;88.50;100579.35;107800;275;104947;-59
2023/10/03 05:22:23;;;;;;;;;;;;;;;14.60;88.52;100587.37;107517;276;114266;-54
2023/10/03 05:24:58;;;;;;;;;;;;;;;14.65;88.44;100581.39;107638;276;96562;-54
2023/10/03 05:27:29;;;;;;;;;;;;;;;14.75;88.38;100579.54;107738;276;97662;-54
2023/10/03 05:30:04;;;;;;;;;;;;;;;14.89;88.36;100580.88;107717;275;121738;-54
2023/10/03 05:32:39;;;;;;;;;;;;;;;15.12;88.36;100579.05;107625;276;105973;-59
2023/10/03 05:35:11;;;;;;;;;;;;;;;15.24;88.08;100576.59;107677;276;114586;-58
2023/10/03 05:37:42;;;;;;;;;;;;;;;15.49;87.94;100579.60;107685;276;94585;-54
2023/10/03 05:40:18;;;;;;;;;;;;;;;15.64;87.70;100573.03;107641;276;95744;-54
2023/10/03 05:42:50;;;;;;;;;;;;;;;15.77;87.38;100570.02;107674;276;120930;-58
2023/10/03 05:45:29;;;;;;;;;;;;;;;15.88;86.96;100569.70;107665;276;104259;-56
2023/10/03 05:48:06;;;;;;;;;;;;;;;16.21;86.83;100568.84;107615;276;113905;-56
2023/10/03 05:50:44;;;;;;;;;;;;;;;16.42;86.65;100566.94;107669;276;97857;-55
2023/10/03 05:53:17;;;;;;;;;;;;;;;16.55;86.11;100563.83;107642;275;98267;-55
2023/10/03 05:55:52;;;;;;;;;;;;;;;16.62;85.74;100557.98;107641;276;120626;-56
2023/10/03 05:58:29;;;;;;;;;;;;;;;16.56;85.48;100559.38;107520;276;106703;-55
2023/10/03 06:01:06;;;;;;;;;;;;;;;16.55;85.35;100558.16;107656;275;113868;-55
2023/10/03 06:03:36;;;;;;;;;;;;;;;16.55;85.06;100566.89;107709;275;93364;-55
2023/10/03 06:06:14;;;;;;;;;;;;;;;16.55;84.93;100569.41;107782;276;97190;-58
2023/10/03 06:08:49;;;;;;;;;;;;;;;16.59;84.59;100566.02;107716;276;122134;-58
2023/10/03 06:11:24;;;;;;;;;;;;;;;16.64;84.62;100565.60;107670;276;106111;-55
2023/10/03 06:13:57;;;;;;;;;;;;;;;16.67;84.52;100556.84;107685;275;115124;-56
2023/10/03 06:16:29;;;;;;;;;;;;;;;16.71;84.30;100550.91;107779;275;96749;-59
2023/10/03 06:19:01;;;;;;;;;;;;;;;16.77;84.13;100551.23;107858;276;98445;-59
2023/10/03 06:21:41;;;;;;;;;;;;;;;16.79;84.04;100552.05;107857;276;121984;-59
2023/10/03 06:24:14;;;;;;;;;;;;;;;16.87;83.72;100549.20;107730;276;104668;-59
2023/10/03 06:26:47;;;;;;;;;;;;;;;16.90;83.48;100546.64;107590;276;116447;-55
2023/10/03 06:29:23;;;;;;;;;;;;;;;16.96;83.40;100544.06;107677;275;95753;-55
2023/10/03 06:31:56;;;;;;;;;;;;;;;17.03;83.44;100537.88;107778;276;97396;-59
2023/10/03 06:34:30;;;;;;;;;;;;;;;17.12;83.22;100537.86;107803;276;121226;-59
2023/10/03 06:37:05;;;;;;;;;;;;;;;17.20;83.19;100533.56;107792;276;105852;-59
2023/10/03 06:39:39;;;;;;;;;;;;;;;17.31;82.70;100532.84;107835;276;114631;-59
2023/10/03 06:42:14;;;;;;;;;;;;;;;17.44;82.54;100536.49;107492;276;97136;-58
2023/10/03 06:44:47;;;;;;;;;;;;;;;17.56;82.22;100537.94;107677;276;97416;-58
2023/10/03 06:47:20;;;;;;;;;;;;;;;17.65;82.21;100537.45;107673;276;121367;-57
2023/10/03 06:49:53;;;;;;;;;;;;;;;17.74;82.06;100541.82;107654;276;105455;-57
2023/10/03 06:52:28;;;;;;;;;;;;;;;17.83;81.80;100539.63;107615;276;113463;-55
2023/10/03 06:55:03;;;;;;;;;;;;;;;17.91;81.38;100539.49;107614;276;94662;-53
2023/10/03 06:57:42;;;;;;;;;;;;;;;17.97;80.84;100542.77;107692;275;97278;-58
2023/10/03 07:00:21;;;;;;;;;;;;;;;18.01;80.65;100542.45;107458;275;120991;-58
2023/10/03 07:03:03;;;;;;;;;;;;;;;18.10;80.78;100543.73;107462;276;106695;-54
2023/10/03 07:05:40;;;;;;;;;;;;;;;18.21;80.37;100539.89;107608;275;113499;-54
2023/10/03 07:08:20;;;;;;;;;;;;;;;18.27;80.01;100535.50;107664;275;93464;-54
2023/10/03 07:10:53;;;;;;;;;;;;;;;18.47;79.77;100530.38;107654;275;96071;-59
2023/10/03 07:13:34;;;;;;;;;;;;;;;18.54;79.43;100528.91;107686;275;121978;-59
2023/10/03 07:16:05;;;;;;;;;;;;;;;18.58;79.43;100534.82;107504;276;103294;-59
2023/10/03 07:18:37;;;;;;;;;;;;;;;18.70;79.34;100537.67;107484;276;115272;-59
2023/10/03 07:21:15;;;;;;;;;;;;;;;18.81;79.13;100534.85;107642;276;94906;-55
2023/10/03 07:23:56;;;;;;;;;;;;;;;18.89;78.69;100533.31;107467;276;95953;-55
2023/10/03 07:26:29;;;;;;;;;;;;;;;18.99;78.54;100532.60;107639;276;120950;-58
2023/10/03 07:29:08;;;;;;;;;;;;;;;19.12;78.36;100527.58;107608;276;104078;-57
2023/10/03 07:31:43;;;;;;;;;;;;;;;19.30;78.22;100526.90;107675;276;114805;-55
2023/10/03 07:34:19;;;;;;;;;;;;;;;19.51;77.60;100521.80;107659;276;92579;-54
2023/10/03 07:36:49;;;;;;;;;;;;;;;19.67;77.26;100515.88;107673;276;95628;-54
2023/10/03 07:39:30;;;;;;;;;;;;;;;19.80;76.86;100515.06;107638;275;120797;-53
2023/10/03 07:42:04;;;;;;;;;;;;;;;20.00;76.79;100513.99;107643;276;104381;-57
2023/10/03 07:44:38;;;;;;;;;;;;;;;20.20;76.35;100510.02;107605;275;113298;-57
2023/10/03 07:47:15;;;;;;;;;;;;;;;20.58;75.80;100505.86;107488;276;96880;-58
2023/10/03 07:49:55;;;;;;;;;;;;;;;21.03;75.61;100508.09;107672;276;97208;-60
2023/10/03 07:52:27;;;;;;;;;;;;;;;21.94;74.72;100505.07;107698;275;122194;-60
2023/10/03 07:55:05;;;;;;;;;;;;;;;22.85;73.87;100502.90;107505;276;107112;-59
2023/10/03 07:57:42;;;;;;;;;;;;;;;24.31;72.60;100498.38;107667;276;114216;-61
2023/10/03 08:00:19;;;;;;;;;;;;;;;25.65;69.03;100491.98;107506;275;95150;-60
2023/10/03 08:03:01;;;;;;;;;;;;;;;26.66;67.14;100491.57;107663;276;95490;-59
2023/10/03 08:05:37;;;;;;;;;;;;;;;27.11;64.16;100489.41;107680;275;121364;-59
2023/10/03 08:08:14;;;;;;;;;;;;;;;27.04;62.15;100486.77;107684;276;104347;-59
2023/10/03 08:10:51;;;;;;;;;;;;;;;26.45;61.53;100491.86;107711;276;114487;-59
2023/10/03 08:13:29;;;;;;;;;;;;;;;25.95;61.97;100486.30;107647;275;93031;-60
2023/10/03 08:16:03;;;;;;;;;;;;;;;25.71;62.03;100484.81;107686;276;97406;-61
2023/10/03 08:18:36;;;;;;;;;;;;;;;25.98;61.82;100482.06;107707;275;121864;-62
2023/10/03 08:21:10;;;;;;;;;;;;;;;25.93;60.78;100482.39;107534;276;106796;-56
2023/10/03 08:23:46;;;;;;;;;;;;;;;25.87;60.31;100480.27;107667;275;114782;-59
2023/10/03 08:26:21;;;;;;;;;;;;;;;25.65;59.88;100477.20;107714;276;93521;-61
2023/10/03 08:29:02;;;;;;;;;;;;;;;25.32;60.04;100465.60;107668;276;97524;-61
2023/10/03 08:31:39;;;;;;;;;;;;;;;25.52;60.09;100466.89;107671;276;120098;-61
2023/10/03 08:34:16;;;;;;;;;;;;;;;25.23;58.51;100462.15;107667;276;106623;-62
2023/10/03 08:36:46;;;;;;;;;;;;;;;25.04;58.44;100462.30;107673;276;115493;-62
2023/10/03 08:39:23;;;;;;;;;;;;;;;25.25;58.88;100458.05;107732;276;93276;-57
2023/10/03 08:42:12;;;;;;;;;;;;;;;25.25;58.77;100449.60;107677;276;98052;-59
2023/10/03 08:44:55;;;;;;;;;;;;;;;25.00;58.56;100448.66;107662;276;120358;-59
2023/10/03 08:47:37;;;;;;;;;;;;;;;24.70;58.67;100444.70;107693;275;105870;-61
2023/10/03 08:50:33;;;;;;;;;;;;;;;24.43;58.18;100436.77;107633;275;114390;-61
2023/10/03 08:53:15;;;;;;;;;;;;;;;24.26;58.57;100437.79;107627;275;92982;-61
2023/10/03 08:55:50;;;;;;;;;;;;;;;24.23;59.00;100431.34;107718;276;97801;-56
2023/10/03 08:58:25;;;;;;;;;;;;;;;24.17;59.36;100421.75;107649;276;121670;-58
2023/10/03 09:01:02;;;;;;;;;;;;;;;24.15;59.17;100417.77;107694;275;104747;-57
2023/10/03 09:03:47;;;;;;;;;;;;;;;24.12;58.57;100417.89;107480;276;114575;-57
2023/10/03 09:06:20;;;;;;;;;;;;;;;24.10;58.52;100415.94;107743;276;94788;-56
2023/10/03 09:09:07;;;;;;;;;;;;;;;24.19;59.11;100414.27;107737;276;98727;-55
2023/10/03 09:11:51;;;;;;;;;;;;;;;24.42;58.97;100406.88;107702;275;122876;-59
2023/10/03 09:14:29;;;;;;;;;;;;;;;24.88;58.33;100405.52;107683;275;105741;-61
2023/10/03 09:17:03;;;;;;;;;;;;;;;25.37;58.42;100401.89;107626;276;115159;-57
2023/10/03 09:19:46;;;;;;;;;;;;;;;25.94;58.00;100402.80;107630;276;95245;-57
2023/10/03 09:22:30;;;;;;;;;;;;;;;26.55;56.11;100396.33;107662;275;98358;-62
2023/10/03 09:25:07;;;;;;;;;;;;;;;26.95;55.19;100390.05;107656;276;121027;-61
2023/10/03 09:27:45;;;;;;;;;;;;;;;27.32;54.53;100383.14;107657;275;103759;-60
2023/10/03 09:30:23;;;;;;;;;;;;;;;27.73;53.88;100378.48;107642;275;115650;-58
2023/10/03 09:32:55;;;;;;;;;;;;;;;27.99;52.69;100376.69;107681;276;94601;-57
2023/10/03 09:35:31;;;;;;;;;;;;;;;27.98;51.05;100375.05;107648;275;98019;-58
2023/10/03 09:38:17;;;;;;;;;;;;;;;28.01;51.43;100371.77;107680;276;121981;-58
2023/10/03 09:40:49;;;;;;;;;;;;;;;28.02;51.63;100368.92;107667;276;104802;-56
2023/10/03 09:43:28;;;;;;;;;;;;;;;27.89;51.68;100363.02;107652;276;114920;-55
2023/10/03 09:46:09;;;;;;;;;;;;;;;27.39;51.19;100363.77;107579;276;93955;-58
2023/10/03 09:48:43;;;;;;;;;;;;;;;27.01;51.43;100362.05;107664;275;98510;-58
2023/10/03 09:51:18;;;;;;;;;;;;;;;26.74;51.78;100361.80;107446;276;121645;-59
2023/10/03 09:53:49;;;;;;;;;;;;;;;26.54;52.25;100366.04;107699;268;104942;-59
2023/10/03 09:56:30;;;;;;;;;;;;;;;26.36;52.16;100365.02;107639;275;113982;-56
2023/10/03 09:59:17;;;;;;;;;;;;;;;26.10;52.29;100361.52;107676;276;94807;-57
2023/10/03 10:01:49;;;;;;;;;;;;;;;25.89;52.25;100358.68;107715;276;98425;-57
2023/10/03 10:04:27;;;;;;;;;;;;;;;25.71;52.53;100359.61;107700;275;121356;-57
2023/10/03 10:07:14;;;;;;;;;;;;;;;25.54;52.89;100358.92;107651;275;105128;-58
2023/10/03 10:09:58;;;;;;;;;;;;;;;25.36;53.35;100354.54;107654;276;114731;-58
2023/10/03 10:12:37;;;;;;;;;;;;;;;25.32;53.84;100348.93;107661;276;92939;-58
2023/10/03 10:15:26;;;;;;;;;;;;;;;25.31;54.01;100342.41;107719;276;97881;-57
2023/10/03 10:18:02;;;;;;;;;;;;;;;25.23;53.38;100336.94;107734;276;121140;-58
2023/10/03 10:20:43;;;;;;;;;;;;;;;25.12;53.29;100336.40;107706;276;106063;-57
2023/10/03 10:23:21;;;;;;;;;;;;;;;25.01;53.81;100324.92;107652;276;115152;-58
2023/10/03 10:26:06;;;;;;;;;;;;;;;25.00;54.08;100319.34;107592;276;94291;-56
2023/10/03 10:28:42;;;;;;;;;;;;;;;25.01;54.36;100316.02;107683;276;96794;-57
2023/10/03 10:31:38;;;;;;;;;;;;;;;25.02;54.01;100311.82;107695;276;121025;-57
2023/10/03 10:34:35;;;;;;;;;;;;;;;25.06;53.99;100311.61;107696;275;105380;-57
2023/10/03 10:37:15;;;;;;;;;;;;;;;25.03;53.66;100308.21;107672;276;113215;-58
2023/10/03 10:40:17;;;;;;;;;;;;;;;24.93;53.32;100302.32;107680;276;95081;-57
2023/10/03 10:43:05;;;;;;;;;;;;;;;24.91;54.19;100301.44;107681;275;97104;-56
2023/10/03 10:45:50;;;;;;;;;;;;;;;24.95;54.27;100295.04;107676;276;122161;-56
2023/10/03 10:48:46;;;;;;;;;;;;;;;24.95;54.15;100293.67;107668;276;106329;-57
2023/10/03 10:51:20;;;;;;;;;;;;;;;24.89;53.21;100292.92;107670;275;113317;-60
2023/10/03 10:53:53;;;;;;;;;;;;;;;24.77;53.38;100289.28;107695;276;93784;-58
2023/10/03 10:56:32;;;;;;;;;;;;;;;24.76;53.77;100283.20;107692;275;96827;-57
2023/10/03 10:59:11;;;;;;;;;;;;;;;24.81;53.86;100274.08;107652;275;122982;-57
2023/10/03 11:01:44;;;;;;;;;;;;;;;24.88;54.26;100265.90;107705;275;109777;-58
2023/10/03 11:04:32;;;;;;;;;;;;;;;24.91;54.23;100263.73;107648;275;114350;-57
2023/10/03 11:07:06;;;;;;;;;;;;;;;24.92;53.81;100254.83;107682;276;93376;-61
2023/10/03 11:09:37;;;;;;;;;;;;;;;24.96;53.84;100257.73;107703;275;97532;-60
2023/10/03 11:12:12;;;;;;;;;;;;;;;24.96;53.78;100251.54;107787;275;121857;-61
2023/10/03 11:14:48;;;;;;;;;;;;;;;24.94;53.90;100248.19;107699;275;105808;-61
2023/10/03 11:17:22;;;;;;;;;;;;;;;24.91;53.95;100238.98;107682;276;114696;-58
2023/10/03 11:19:56;;;;;;;;;;;;;;;24.89;53.48;100240.48;107681;276;94666;-56
2023/10/03 11:22:29;;;;;;;;;;;;;;;24.89;53.80;100234.40;107677;276;97969;-61
2023/10/03 11:25:09;;;;;;;;;;;;;;;24.88;53.97;100233.02;107681;275;120096;-61
2023/10/03 11:27:41;;;;;;;;;;;;;;;24.87;54.07;100227.89;107696;276;104651;-61
2023/10/03 11:30:21;;;;;;;;;;;;;;;24.87;54.18;100224.23;107671;276;113076;-60
2023/10/03 11:33:02;;;;;;;;;;;;;;;24.91;54.02;100223.33;107715;276;94875;-58
2023/10/03 11:35:36;;;;;;;;;;;;;;;24.95;54.12;100220.09;107725;276;97933;-57
2023/10/03 11:38:09;;;;;;;;;;;;;;;25.01;53.25;100213.14;107698;276;120828;-57
2023/10/03 11:40:47;;;;;;;;;;;;;;;25.00;53.10;100209.38;107764;276;106533;-57
2023/10/03 11:43:26;;;;;;;;;;;;;;;25.10;53.64;100208.69;107668;276;114122;-58
2023/10/03 11:46:00;;;;;;;;;;;;;;;25.20;53.52;100204.17;107675;276;93501;-57
2023/10/03 11:48:35;;;;;;;;;;;;;;;25.26;53.57;100194.94;107612;276;96772;-58
2023/10/03 11:51:09;;;;;;;;;;;;;;;25.29;53.14;100186.45;107666;276;120262;-59
2023/10/03 11:53:42;;;;;;;;;;;;;;;25.32;52.54;100180.34;107664;276;105628;-57
2023/10/03 11:56:17;;;;;;;;;;;;;;;25.33;52.36;100168.70;107681;276;115081;-57
2023/10/03 11:58:52;;;;;;;;;;;;;;;25.34;52.31;100161.46;106899;277;766442;-60
2023/10/03 12:01:23;;;;;;;;;;;;;;;25.33;52.02;100150.27;107557;276;98175;-61
2023/10/03 12:03:58;;;;;;;;;;;;;;;25.35;52.38;100148.62;107520;276;122009;-61
2023/10/03 12:06:36;;;;;;;;;;;;;;;25.29;51.67;100147.06;107670;276;106707;-56
2023/10/03 12:09:12;;;;;;;;;;;;;;;25.24;52.12;100152.77;107713;276;113201;-57
2023/10/03 12:11:46;;;;;;;;;;;;;;;25.19;51.96;100151.04;107505;276;97385;-57
2023/10/03 12:14:24;;;;;;;;;;;;;;;25.21;52.21;100149.69;107687;276;97141;-56
2023/10/03 12:17:08;;;;;;;;;;;;;;;25.25;52.03;100148.99;107707;276;121999;-56
2023/10/03 12:19:47;;;;;;;;;;;;;;;25.27;52.15;100139.24;107663;276;105535;-56
2023/10/03 12:22:20;;;;;;;;;;;;;;;25.28;51.86;100137.41;107638;276;115293;-60
2023/10/03 12:24:52;;;;;;;;;;;;;;;25.25;51.74;100132.17;107645;276;93733;-60
2023/10/03 12:27:29;;;;;;;;;;;;;;;25.27;52.12;100129.30;107703;275;98165;-56
2023/10/03 12:30:10;;;;;;;;;;;;;;;25.27;51.85;100132.55;107661;276;122139;-57
2023/10/03 12:32:45;;;;;;;;;;;;;;;25.29;51.81;100124.17;107740;276;103488;-61
2023/10/03 12:35:19;;;;;;;;;;;;;;;25.35;51.66;100118.09;107702;275;114022;-61
2023/10/03 12:37:58;;;;;;;;;;;;;;;25.41;51.91;100111.14;107669;276;93468;-56
2023/10/03 12:40:43;;;;;;;;;;;;;;;25.45;51.68;100110.28;107734;276;98239;-60
2023/10/03 12:43:18;;;;;;;;;;;;;;;25.50;51.70;100097.27;107689;276;122034;-62
2023/10/03 12:45:52;;;;;;;;;;;;;;;25.53;51.60;100095.95;107658;275;105561;-61
2023/10/03 12:48:26;;;;;;;;;;;;;;;25.52;51.72;100085.27;107676;276;114913;-61
2023/10/03 12:51:00;;;;;;;;;;;;;;;25.53;51.62;100087.38;107670;276;94011;-61
2023/10/03 12:53:36;;;;;;;;;;;;;;;25.56;51.83;100085.73;107674;275;97894;-59
2023/10/03 12:56:09;;;;;;;;;;;;;;;25.55;51.88;100078.70;107700;276;122176;-56
2023/10/03 12:58:42;;;;;;;;;;;;;;;25.56;52.00;100074.77;107669;275;105135;-56
2023/10/03 13:01:21;;;;;;;;;;;;;;;25.59;51.78;100066.88;107665;275;114739;-57
2023/10/03 13:04:00;;;;;;;;;;;;;;;25.55;51.57;100057.52;107683;275;94788;-57
2023/10/03 13:06:39;;;;;;;;;;;;;;;25.48;51.51;100053.84;107721;275;97378;-57
2023/10/03 13:09:10;;;;;;;;;;;;;;;25.46;51.22;100055.35;107700;275;122129;-57
2023/10/03 13:11:53;;;;;;;;;;;;;;;25.41;51.37;100043.72;107730;275;104654;-57
2023/10/03 13:14:29;;;;;;;;;;;;;;;25.38;51.58;100050.16;107659;276;114305;-56
2023/10/03 13:17:09;;;;;;;;;;;;;;;25.29;50.68;100045.15;107669;275;95160;-56
2023/10/03 13:19:45;;;;;;;;;;;;;;;25.19;51.43;100048.28;107626;276;97564;-57
2023/10/03 13:22:27;;;;;;;;;;;;;;;25.14;51.64;100046.46;107657;276;122333;-56